Terminal Aerodrome Forecast
Issued by NWS Atlanta, GA

Home | Current Version | Previous Version | Text Only | Print | Product List | Glossary On
Versions: 1 2 3 4 5 6 7 8 9 10 11 12 13 14 15 16 17 18 19 20 21 22 23 24 25 26 27 28 29 30 31 32 33 34 35 36 37 38 39 40 41 42
000
FTUS42 KFFC 312013 AAB
TAFATL
TAF AMD
KATL 312013Z 3120/0124 33005KT P6SM BKN050
     FM312200 02005KT P6SM BKN050
     FM010000 02003KT P6SM SCT050 SCT250
     FM011000 03005KT P6SM SCT030 SCT250
     FM011500 07003KT P6SM SCT250
     FM012000 12006KT P6SM BKN050=

USA.gov is the U.S. government's official web portal to all federal, state and local government web resources and services.